createdAt,value
2022-11-25T00:00:16.876Z,11.75
2022-11-25T00:02:45.579Z,9.18
2022-11-25T00:05:13.966Z,13.88
2022-11-25T00:07:42.107Z,16.38
2022-11-25T00:10:10.168Z,8.27
2022-11-25T00:12:38.281Z,13.82
2022-11-25T00:15:06.558Z,16.58
2022-11-25T00:17:36.067Z,9.43
2022-11-25T00:20:06.055Z,6.65
2022-11-25T00:22:34.094Z,7.97
2022-11-25T00:25:02.134Z,10.77
2022-11-25T00:27:30.000Z,10.25
2022-11-25T00:29:57.952Z,6.95
2022-11-25T00:32:25.798Z,8.68
2022-11-25T00:34:55.178Z,14.63
2022-11-25T00:37:23.075Z,13.60
2022-11-25T00:39:51.596Z,18.98
2022-11-25T00:42:37.258Z,8.45
2022-11-25T00:45:05.553Z,12.65
2022-11-25T00:47:33.698Z,15.07
2022-11-25T00:50:03.069Z,14.57
2022-11-25T00:52:31.176Z,7.95
2022-11-25T00:54:59.358Z,6.63
2022-11-25T00:57:27.429Z,12.30
2022-11-25T00:59:55.471Z,16.15
2022-11-25T01:02:23.404Z,17.90
2022-11-25T01:04:51.518Z,5.80
2022-11-25T01:07:21.302Z,6.97
2022-11-25T01:09:49.247Z,10.20
2022-11-25T01:12:17.135Z,6.00
2022-11-25T01:14:45.182Z,12.48
2022-11-25T01:17:12.990Z,11.30
2022-11-25T01:19:42.157Z,12.57
2022-11-25T01:22:10.429Z,12.05
2022-11-25T01:24:39.619Z,13.10
2022-11-25T01:27:07.709Z,12.65
2022-11-25T01:29:35.515Z,9.77
2022-11-25T01:32:03.644Z,8.57
2022-11-25T01:34:32.527Z,9.38
2022-11-25T01:37:00.600Z,15.32
2022-11-25T01:39:32.910Z,14.23
2022-11-25T01:42:02.821Z,6.75
2022-11-25T01:44:31.540Z,15.95
2022-11-25T01:47:05.177Z,8.90
2022-11-25T01:49:35.463Z,12.82
2022-11-25T01:52:05.689Z,16.85
2022-11-25T01:54:36.542Z,12.77
2022-11-25T01:57:07.421Z,10.13
2022-11-25T01:59:39.483Z,8.10
2022-11-25T02:02:07.855Z,6.43
2022-11-25T02:04:36.859Z,11.32
2022-11-25T02:07:06.705Z,7.57
2022-11-25T02:09:35.653Z,9.30
2022-11-25T02:12:04.149Z,8.15
2022-11-25T02:14:33.878Z,9.75
2022-11-25T02:17:03.030Z,12.50
2022-11-25T02:19:36.106Z,13.30
2022-11-25T02:22:06.914Z,7.80
2022-11-25T02:24:38.175Z,10.52
2022-11-25T02:27:08.180Z,10.10
2022-11-25T02:29:36.151Z,11.27
2022-11-25T02:32:04.358Z,12.32
2022-11-25T02:34:32.235Z,16.92
2022-11-25T02:37:01.032Z,13.45
2022-11-25T02:39:30.685Z,13.18
2022-11-25T02:42:00.262Z,11.55
2022-11-25T02:44:29.453Z,10.73
2022-11-25T02:46:57.336Z,11.60
2022-11-25T02:49:25.503Z,10.20
2022-11-25T02:51:53.626Z,15.23
2022-11-25T02:54:21.433Z,8.98
2022-11-25T02:56:49.618Z,11.45
2022-11-25T02:59:17.824Z,5.22
2022-11-25T03:01:47.077Z,9.18
2022-11-25T03:04:15.196Z,9.00
2022-11-25T03:06:43.105Z,10.85
2022-11-25T03:09:10.910Z,10.85
2022-11-25T03:11:56.295Z,11.65
2022-11-25T03:14:24.526Z,12.15
2022-11-25T03:16:53.791Z,12.80
2022-11-25T03:19:21.684Z,10.90
2022-11-25T03:21:49.526Z,11.30
2022-11-25T03:24:17.838Z,12.43
2022-11-25T03:26:45.889Z,7.82
2022-11-25T03:29:14.148Z,10.18
2022-11-25T03:31:42.499Z,5.30
2022-11-25T03:34:12.052Z,8.95
2022-11-25T03:36:40.337Z,15.40
2022-11-25T03:39:08.225Z,6.50
2022-11-25T03:41:36.101Z,7.68
2022-11-25T03:44:04.149Z,9.63
2022-11-25T03:46:31.959Z,9.85
2022-11-25T03:49:00.413Z,9.25
2022-11-25T03:51:29.750Z,5.68
2022-11-25T03:53:57.830Z,10.98
2022-11-25T03:56:25.813Z,7.80
2022-11-25T03:58:53.968Z,9.73
2022-11-25T04:01:22.179Z,13.45
2022-11-25T04:03:50.295Z,10.38
2022-11-25T04:06:20.336Z,10.57
2022-11-25T04:08:49.891Z,12.38
2022-11-25T04:11:17.735Z,7.30
2022-11-25T04:13:44.565Z,12.30
2022-11-25T04:16:20.256Z,8.30
2022-11-25T04:18:48.120Z,10.98
2022-11-25T04:21:17.771Z,10.82
2022-11-25T04:23:45.622Z,9.75
2022-11-25T04:26:15.643Z,10.07
2022-11-25T04:28:43.800Z,9.38
2022-11-25T04:31:11.738Z,13.55
2022-11-25T04:33:39.996Z,8.27
2022-11-25T04:36:08.420Z,11.88
2022-11-25T04:38:36.585Z,12.50
2022-11-25T04:41:04.726Z,8.75
2022-11-25T04:43:33.924Z,10.45
2022-11-25T04:46:17.423Z,6.95
2022-11-25T04:48:45.290Z,8.38
2022-11-25T04:51:13.561Z,17.88
2022-11-25T04:53:41.408Z,10.65
2022-11-25T04:56:10.201Z,15.07
2022-11-25T04:58:56.960Z,11.35
2022-11-25T05:01:25.060Z,12.35
2022-11-25T05:03:57.487Z,10.25
2022-11-25T05:06:25.762Z,10.48
2022-11-25T05:08:53.822Z,6.35
2022-11-25T05:11:21.646Z,11.90
2022-11-25T05:13:51.281Z,8.75
2022-11-25T05:16:19.159Z,5.88
2022-11-25T05:18:47.194Z,9.00
2022-11-25T05:21:15.025Z,6.45
2022-11-25T05:23:42.853Z,10.85
2022-11-25T05:26:10.730Z,9.27
2022-11-25T05:28:38.548Z,8.85
2022-11-25T05:31:08.372Z,6.25
2022-11-25T05:33:36.426Z,16.58
2022-11-25T05:36:05.208Z,9.40
2022-11-25T05:38:33.099Z,12.63
2022-11-25T05:41:01.646Z,29.98
2022-11-25T05:43:29.626Z,10.50
2022-11-25T05:45:57.767Z,7.53
2022-11-25T05:48:27.230Z,12.63
2022-11-25T05:50:55.091Z,10.00
2022-11-25T05:53:23.161Z,9.82
2022-11-25T05:55:55.106Z,8.82
2022-11-25T05:58:24.241Z,18.47
2022-11-25T06:00:52.421Z,13.93
2022-11-25T06:03:20.546Z,14.68
2022-11-25T06:05:49.801Z,13.77
2022-11-25T06:08:17.780Z,10.15
2022-11-25T06:10:45.816Z,11.20
2022-11-25T06:13:13.700Z,14.32
2022-11-25T06:15:42.462Z,13.98
2022-11-25T06:18:10.946Z,6.60
2022-11-25T06:20:39.042Z,18.80
2022-11-25T06:23:08.602Z,8.48
2022-11-25T06:25:36.797Z,10.10
2022-11-25T06:28:12.956Z,13.85
2022-11-25T06:30:41.293Z,12.50
2022-11-25T06:33:09.131Z,11.73
2022-11-25T06:35:37.123Z,11.02
2022-11-25T06:38:05.167Z,9.52
2022-11-25T06:40:34.350Z,10.48
2022-11-25T06:43:02.181Z,7.70
2022-11-25T06:45:30.365Z,11.23
2022-11-25T06:47:58.473Z,14.02
2022-11-25T06:50:26.405Z,9.80
2022-11-25T06:52:54.289Z,13.30
2022-11-25T06:55:22.440Z,9.52
2022-11-25T06:57:59.089Z,9.55
2022-11-25T07:00:36.438Z,16.30
2022-11-25T07:03:04.577Z,19.33
2022-11-25T07:05:32.451Z,14.32
2022-11-25T07:08:00.553Z,20.30
2022-11-25T07:10:28.501Z,19.05
2022-11-25T07:12:59.734Z,24.58
2022-11-25T07:15:27.576Z,63.25
2022-11-25T07:17:55.595Z,84.72
2022-11-25T07:20:25.196Z,79.13
2022-11-25T07:22:53.745Z,55.25
2022-11-25T07:25:24.435Z,37.50
2022-11-25T07:27:57.408Z,28.17
2022-11-25T07:33:13.263Z,41.33
2022-11-25T07:35:41.157Z,38.35
2022-11-25T07:38:09.205Z,41.53
2022-11-25T07:40:37.162Z,51.60
2022-11-25T07:43:06.355Z,47.00
2022-11-25T07:45:34.194Z,50.92
2022-11-25T07:48:03.186Z,43.30
2022-11-25T07:50:31.030Z,37.65
2022-11-25T07:52:59.017Z,32.58
2022-11-25T07:55:27.263Z,29.05
2022-11-25T07:57:55.141Z,27.35
2022-11-25T08:00:24.634Z,25.55
2022-11-25T08:02:53.072Z,28.77
2022-11-25T08:05:20.999Z,23.88
2022-11-25T08:07:49.183Z,51.97
2022-11-25T08:10:17.275Z,58.58
2022-11-25T08:12:45.247Z,58.10
2022-11-25T08:15:13.471Z,45.35
2022-11-25T08:17:42.669Z,44.67
2022-11-25T08:20:10.807Z,69.18
2022-11-25T08:22:38.720Z,53.45
2022-11-25T08:25:07.019Z,50.03
2022-11-25T08:27:34.883Z,64.75
2022-11-25T08:30:02.775Z,75.75
2022-11-25T08:32:30.667Z,68.68
2022-11-25T08:35:00.105Z,56.13
2022-11-25T08:37:28.352Z,54.85
2022-11-25T08:39:56.816Z,56.90
2022-11-25T08:42:24.865Z,55.30
2022-11-25T08:44:53.925Z,51.13
2022-11-25T08:47:21.883Z,37.03
2022-11-25T08:49:51.541Z,47.05
2022-11-25T08:52:20.860Z,45.70
2022-11-25T08:54:49.039Z,36.47
2022-11-25T08:57:17.177Z,35.17
2022-11-25T08:59:45.467Z,39.15
2022-11-25T09:02:15.828Z,41.72
2022-11-25T09:04:43.997Z,22.15
2022-11-25T09:07:12.744Z,21.58
2022-11-25T09:09:42.078Z,25.70
2022-11-25T09:12:10.063Z,33.92
2022-11-25T09:14:38.089Z,27.30
2022-11-25T09:17:09.173Z,21.00
2022-11-25T09:19:37.173Z,28.38
2022-11-25T09:22:05.122Z,37.15
2022-11-25T09:24:32.974Z,35.90
2022-11-25T09:27:02.307Z,21.95
2022-11-25T09:29:30.962Z,16.13
2022-11-25T09:31:58.885Z,11.60
2022-11-25T09:34:27.172Z,23.08
2022-11-25T09:36:55.003Z,11.00
2022-11-25T09:39:28.499Z,11.15
2022-11-25T09:42:23.964Z,16.13
2022-11-25T09:45:17.241Z,14.05
2022-11-25T09:47:51.763Z,10.63
2022-11-25T09:50:30.654Z,16.77
2022-11-25T09:53:03.340Z,16.83
2022-11-25T09:55:34.634Z,22.05
2022-11-25T09:58:07.563Z,49.22
2022-11-25T10:00:38.925Z,27.98
2022-11-25T10:03:10.995Z,21.88
2022-11-25T10:05:40.722Z,17.53
2022-11-25T10:08:11.286Z,14.52
2022-11-25T10:10:42.138Z,11.82
2022-11-25T10:13:15.452Z,18.23
2022-11-25T10:15:45.832Z,13.50
2022-11-25T10:18:18.036Z,18.20
2022-11-25T10:20:47.372Z,23.80
2022-11-25T10:23:22.239Z,18.15
2022-11-25T10:25:55.866Z,15.05
2022-11-25T10:28:26.289Z,11.88
2022-11-25T10:30:59.227Z,16.25
2022-11-25T10:35:56.289Z,13.77
2022-11-25T10:38:27.239Z,16.83
2022-11-25T10:40:56.000Z,13.98
2022-11-25T10:43:30.318Z,13.05
2022-11-25T10:46:05.674Z,14.43
2022-11-25T10:48:46.628Z,12.25
2022-11-25T10:51:21.971Z,13.90
2022-11-25T10:54:04.674Z,12.38
2022-11-25T10:56:42.960Z,12.80
2022-11-25T10:59:15.856Z,10.38
2022-11-25T11:01:44.067Z,10.20
2022-11-25T11:04:15.016Z,10.50
2022-11-25T11:06:44.266Z,12.40
2022-11-25T11:09:26.979Z,20.25
2022-11-25T11:11:54.980Z,18.27
2022-11-25T11:14:24.403Z,14.40
2022-11-25T11:16:53.526Z,10.70
2022-11-25T11:19:22.199Z,11.30
2022-11-25T11:21:50.405Z,13.82
2022-11-25T11:24:29.228Z,13.82
2022-11-25T11:27:04.418Z,11.60
2022-11-25T11:29:33.880Z,10.90
2022-11-25T11:32:02.810Z,10.25
2022-11-25T11:34:38.213Z,17.63
2022-11-25T11:37:16.006Z,11.45
2022-11-25T11:39:55.132Z,16.08
2022-11-25T11:42:29.064Z,14.13
2022-11-25T11:45:04.432Z,23.45
2022-11-25T11:47:39.199Z,13.80
2022-11-25T11:50:18.241Z,11.88
2022-11-25T11:52:51.329Z,10.80
2022-11-25T11:57:51.507Z,14.45
2022-11-25T12:00:21.400Z,13.77
2022-11-25T12:02:55.692Z,9.75
2022-11-25T12:05:26.855Z,14.15
2022-11-25T12:08:01.005Z,15.43
2022-11-25T12:10:30.858Z,18.05
2022-11-25T12:13:01.602Z,16.95
2022-11-25T12:15:34.534Z,14.82
2022-11-25T12:18:04.023Z,15.35
2022-11-25T12:20:36.271Z,12.18
2022-11-25T12:23:07.273Z,11.07
2022-11-25T12:25:37.089Z,13.60
2022-11-25T12:28:07.731Z,14.38
2022-11-25T12:30:39.446Z,12.38
2022-11-25T12:33:09.379Z,20.42
2022-11-25T12:35:41.189Z,14.15
2022-11-25T12:38:15.841Z,20.13
2022-11-25T12:40:45.298Z,16.35
2022-11-25T12:43:22.105Z,21.17
2022-11-25T12:45:53.743Z,18.92
2022-11-25T12:48:21.904Z,23.13
2022-11-25T12:50:55.988Z,30.02
2022-11-25T12:53:29.789Z,35.45
2022-11-25T12:55:59.356Z,24.00
2022-11-25T12:58:42.398Z,15.93
2022-11-25T13:01:25.651Z,17.77
2022-11-25T13:06:30.874Z,18.98
2022-11-25T13:09:01.736Z,23.52
2022-11-25T13:11:49.699Z,28.52
2022-11-25T13:14:22.990Z,19.60
2022-11-25T13:16:53.507Z,26.25
2022-11-25T13:19:21.845Z,18.00
2022-11-25T13:21:59.590Z,19.80
2022-11-25T13:24:35.105Z,19.90
2022-11-25T13:27:05.164Z,17.70
2022-11-25T13:30:00.753Z,13.60
2022-11-25T13:32:31.411Z,15.82
2022-11-25T13:35:30.881Z,20.63
2022-11-25T13:37:58.813Z,21.60
2022-11-25T13:40:38.589Z,22.13
2022-11-25T13:43:06.832Z,16.73
2022-11-25T13:45:35.819Z,14.00
2022-11-25T13:48:14.071Z,15.73
2022-11-25T13:51:09.390Z,20.10
2022-11-25T13:53:32.081Z,17.92
2022-11-25T13:56:13.415Z,19.38
2022-11-25T13:58:41.225Z,22.95
2022-11-25T14:01:27.983Z,18.35
2022-11-25T14:04:01.262Z,24.17
2022-11-25T14:06:35.396Z,20.40
2022-11-25T14:09:05.198Z,23.70
2022-11-25T14:11:41.834Z,25.30
2022-11-25T14:14:37.227Z,17.17
2022-11-25T14:17:12.118Z,25.50
2022-11-25T14:19:52.227Z,18.40
2022-11-25T14:22:26.579Z,18.55
2022-11-25T14:24:55.833Z,18.55
2022-11-25T14:27:26.502Z,12.00
2022-11-25T14:29:56.216Z,20.88
2022-11-25T14:32:26.604Z,14.02
2022-11-25T14:34:58.335Z,14.52
2022-11-25T14:37:28.196Z,13.35
2022-11-25T14:39:57.488Z,14.45
2022-11-25T14:42:26.712Z,11.48
2022-11-25T14:44:56.432Z,14.90
2022-11-25T14:47:25.217Z,16.67
2022-11-25T14:52:44.166Z,9.20
2022-11-25T14:55:12.866Z,12.70
2022-11-25T14:57:42.237Z,10.63
2022-11-25T15:00:11.572Z,11.00
2022-11-25T15:02:41.506Z,11.65
2022-11-25T15:05:16.435Z,10.18
2022-11-25T15:07:54.562Z,12.02
2022-11-25T15:10:32.859Z,13.40
2022-11-25T15:13:01.557Z,11.05
2022-11-25T15:15:29.361Z,9.63
2022-11-25T15:18:00.243Z,11.05
2022-11-25T15:20:33.479Z,12.38
2022-11-25T15:23:03.186Z,8.35
2022-11-25T15:25:31.355Z,8.63
2022-11-25T15:27:59.462Z,15.18
2022-11-25T15:30:29.304Z,19.90
2022-11-25T15:32:57.582Z,13.15
2022-11-25T15:35:27.371Z,5.85
2022-11-25T15:37:55.273Z,17.48
2022-11-25T15:40:36.521Z,39.55
2022-11-25T15:43:06.441Z,26.10
2022-11-25T15:45:38.586Z,16.00
2022-11-25T15:48:06.839Z,8.47
2022-11-25T15:50:35.276Z,9.25
2022-11-25T15:53:03.395Z,11.18
2022-11-25T15:55:32.914Z,10.23
2022-11-25T15:58:04.116Z,15.07
2022-11-25T16:00:32.045Z,13.07
2022-11-25T16:03:00.366Z,17.15
2022-11-25T16:05:32.811Z,17.77
2022-11-25T16:08:24.718Z,15.10
2022-11-25T16:10:56.890Z,19.50
2022-11-25T16:13:36.794Z,14.60
2022-11-25T16:16:16.202Z,11.60
2022-11-25T16:18:45.998Z,10.85
2022-11-25T16:21:15.682Z,9.75
2022-11-25T16:23:46.112Z,13.35
2022-11-25T16:26:16.123Z,17.27
2022-11-25T16:28:52.669Z,11.68
2022-11-25T16:31:20.763Z,7.28
2022-11-25T16:33:48.680Z,8.45
2022-11-25T16:36:16.510Z,8.52
2022-11-25T16:38:44.422Z,9.65
2022-11-25T16:41:18.430Z,9.80
2022-11-25T16:43:47.907Z,9.07
2022-11-25T16:46:17.746Z,14.95
2022-11-25T16:48:46.271Z,12.73
2022-11-25T16:51:15.642Z,11.10
2022-11-25T16:53:44.608Z,19.40
2022-11-25T16:56:16.255Z,14.15
2022-11-25T16:58:44.774Z,14.85
2022-11-25T17:01:16.010Z,14.35
2022-11-25T17:03:44.461Z,19.50
2022-11-25T17:06:20.045Z,21.60
2022-11-25T17:08:50.008Z,18.25
2022-11-25T17:11:21.017Z,19.00
2022-11-25T17:13:51.472Z,17.77
2022-11-25T17:16:22.199Z,14.00
2022-11-25T17:18:51.215Z,13.55
2022-11-25T17:21:19.245Z,13.15
2022-11-25T17:23:50.217Z,13.07
2022-11-25T17:26:22.467Z,11.38
2022-11-25T17:28:54.362Z,12.18
2022-11-25T17:31:25.962Z,12.75
2022-11-25T17:33:55.979Z,12.95
2022-11-25T17:36:23.951Z,13.82
2022-11-25T17:38:51.837Z,14.43
2022-11-25T17:41:21.162Z,13.35
2022-11-25T17:43:51.400Z,15.65
2022-11-25T17:46:19.315Z,14.93
2022-11-25T17:48:48.790Z,15.07
2022-11-25T17:51:16.686Z,16.38
2022-11-25T17:53:44.848Z,14.65
2022-11-25T17:56:18.959Z,13.15
2022-11-25T17:58:46.930Z,13.55
2022-11-25T18:01:14.810Z,13.77
2022-11-25T18:03:42.942Z,14.48
2022-11-25T18:06:12.507Z,14.07
2022-11-25T18:08:40.437Z,12.50
2022-11-25T18:11:08.650Z,14.48
2022-11-25T18:13:37.880Z,16.77
2022-11-25T18:16:06.450Z,15.02
2022-11-25T18:18:34.293Z,19.70
2022-11-25T18:21:02.147Z,13.25
2022-11-25T18:23:31.372Z,16.17
2022-11-25T18:26:01.324Z,19.30
2022-11-25T18:28:31.158Z,21.25
2022-11-25T18:31:00.917Z,20.60
2022-11-25T18:33:28.834Z,16.90
2022-11-25T18:35:57.041Z,11.75
2022-11-25T18:38:24.924Z,16.65
2022-11-25T18:40:54.451Z,15.85
2022-11-25T18:43:26.412Z,13.48
2022-11-25T18:45:55.836Z,13.05
2022-11-25T18:48:24.813Z,19.77
2022-11-25T18:50:53.768Z,18.88
2022-11-25T18:53:21.974Z,16.35
2022-11-25T18:55:50.596Z,14.57
2022-11-25T18:58:21.340Z,15.35
2022-11-25T19:00:50.283Z,11.15
2022-11-25T19:03:19.897Z,10.85
2022-11-25T19:05:48.423Z,16.85
2022-11-25T19:08:18.447Z,12.82
2022-11-25T19:10:46.931Z,17.35
2022-11-25T19:13:16.794Z,21.65
2022-11-25T19:15:46.416Z,22.40
2022-11-25T19:18:15.802Z,15.35
2022-11-25T19:20:43.715Z,18.55
2022-11-25T19:23:21.317Z,14.95
2022-11-25T19:25:49.939Z,15.13
2022-11-25T19:28:19.399Z,12.77
2022-11-25T19:30:48.921Z,20.92
2022-11-25T19:33:19.897Z,16.55
2022-11-25T19:35:48.996Z,18.00
2022-11-25T19:38:18.807Z,16.42
2022-11-25T19:40:46.920Z,17.33
2022-11-25T19:43:14.755Z,16.55
2022-11-25T19:45:42.964Z,16.88
2022-11-25T19:48:16.909Z,21.30
2022-11-25T19:50:46.028Z,18.27
2022-11-25T19:53:16.737Z,18.02
2022-11-25T19:55:45.092Z,21.40
2022-11-25T19:58:13.041Z,19.13
2022-11-25T20:00:41.493Z,20.60
2022-11-25T20:03:13.544Z,17.83
2022-11-25T20:05:43.212Z,13.43
2022-11-25T20:08:13.114Z,15.35
2022-11-25T20:10:41.182Z,22.92
2022-11-25T20:13:09.037Z,18.85
2022-11-25T20:15:38.572Z,18.63
2022-11-25T20:18:06.801Z,22.15
2022-11-25T20:20:36.335Z,16.17
2022-11-25T20:23:07.441Z,16.35
2022-11-25T20:25:36.750Z,16.08
2022-11-25T20:28:04.626Z,14.13
2022-11-25T20:30:32.444Z,17.50
2022-11-25T20:33:00.514Z,12.88
2022-11-25T20:35:29.713Z,14.20
2022-11-25T20:38:00.364Z,17.55
2022-11-25T20:40:33.508Z,17.90
2022-11-25T20:43:01.408Z,14.98
2022-11-25T20:45:29.315Z,19.23
2022-11-25T20:47:59.181Z,14.95
2022-11-25T20:50:29.686Z,16.83
2022-11-25T20:52:57.907Z,15.82
2022-11-25T20:55:26.149Z,20.63
2022-11-25T20:57:55.373Z,18.40
2022-11-25T21:00:23.915Z,12.50
2022-11-25T21:02:52.140Z,20.73
2022-11-25T21:05:20.651Z,14.57
2022-11-25T21:07:49.810Z,15.13
2022-11-25T21:10:22.449Z,16.13
2022-11-25T21:12:50.313Z,18.05
2022-11-25T21:15:21.175Z,13.50
2022-11-25T21:17:49.394Z,14.98
2022-11-25T21:20:18.169Z,16.50
2022-11-25T21:22:46.954Z,19.88
2022-11-25T21:25:16.421Z,18.63
2022-11-25T21:27:45.135Z,22.77
2022-11-25T21:30:19.369Z,28.90
2022-11-25T21:32:47.811Z,22.63
2022-11-25T21:35:16.090Z,20.52
2022-11-25T21:37:45.595Z,20.02
2022-11-25T21:40:22.804Z,21.55
2022-11-25T21:42:50.752Z,22.52
2022-11-25T21:45:20.080Z,29.80
2022-11-25T21:47:48.275Z,22.48
2022-11-25T21:50:17.192Z,34.65
2022-11-25T21:52:45.642Z,30.00
2022-11-25T21:55:13.680Z,27.50
2022-11-25T21:57:41.879Z,22.10
2022-11-25T22:00:19.875Z,24.70
2022-11-25T22:02:49.397Z,19.23
2022-11-25T22:05:19.133Z,18.63
2022-11-25T22:07:47.256Z,20.45
2022-11-25T22:10:15.998Z,19.35
2022-11-25T22:12:45.310Z,18.73
2022-11-25T22:15:15.401Z,21.30
2022-11-25T22:17:43.630Z,17.08
2022-11-25T22:20:26.249Z,19.65
2022-11-25T22:22:54.497Z,18.75
2022-11-25T22:25:22.833Z,22.65
2022-11-25T22:27:51.042Z,19.63
2022-11-25T22:30:19.916Z,18.48
2022-11-25T22:32:48.887Z,17.98
2022-11-25T22:35:17.507Z,22.88
2022-11-25T22:37:51.972Z,17.38
2022-11-25T22:40:23.281Z,21.50
2022-11-25T22:42:52.634Z,20.00
2022-11-25T22:45:26.277Z,19.90
2022-11-25T22:47:54.481Z,19.90
2022-11-25T22:50:24.103Z,22.13
2022-11-25T22:52:53.712Z,23.98
2022-11-25T22:55:22.804Z,26.55
2022-11-25T22:57:51.554Z,28.80
2022-11-25T23:00:21.189Z,27.60
2022-11-25T23:02:49.748Z,24.15
2022-11-25T23:05:19.429Z,28.23
2022-11-25T23:07:47.708Z,20.00
2022-11-25T23:10:18.743Z,25.17
2022-11-25T23:12:46.963Z,21.42
2022-11-25T23:15:16.050Z,22.55
2022-11-25T23:17:45.607Z,25.75
2022-11-25T23:20:18.762Z,27.60
2022-11-25T23:22:47.074Z,23.42
2022-11-25T23:25:18.169Z,24.52
2022-11-25T23:27:46.397Z,26.10
2022-11-25T23:30:18.295Z,23.05
2022-11-25T23:32:47.038Z,26.77
2022-11-25T23:35:17.184Z,22.15
2022-11-25T23:37:45.579Z,26.70
2022-11-25T23:40:20.878Z,25.02
2022-11-25T23:42:48.929Z,25.50
2022-11-25T23:45:18.476Z,30.70
2022-11-25T23:47:50.872Z,25.35
2022-11-25T23:50:21.351Z,24.23
2022-11-25T23:52:49.533Z,26.40
2022-11-25T23:55:20.433Z,22.52
2022-11-25T23:57:48.772Z,28.80
